sensor_id;sensor_type;location;lat;lon;timestamp;P1;durP1;ratioP1;P2;durP2;ratioP2
76194;SDS011;64964;48.694;21.206;2023-04-25T00:02:04;14.27;;;10.00;;
76194;SDS011;64964;48.694;21.206;2023-04-25T00:04:30;13.40;;;9.87;;
76194;SDS011;64964;48.694;21.206;2023-04-25T00:06:58;14.75;;;9.85;;
76194;SDS011;64964;48.694;21.206;2023-04-25T00:09:26;13.35;;;8.88;;
76194;SDS011;64964;48.694;21.206;2023-04-25T00:11:52;13.30;;;9.88;;
76194;SDS011;64964;48.694;21.206;2023-04-25T00:14:17;13.70;;;10.10;;
76194;SDS011;64964;48.694;21.206;2023-04-25T00:16:43;14.63;;;9.80;;
76194;SDS011;64964;48.694;21.206;2023-04-25T00:19:09;17.63;;;10.57;;
76194;SDS011;64964;48.694;21.206;2023-04-25T00:21:34;13.97;;;9.87;;
76194;SDS011;64964;48.694;21.206;2023-04-25T00:24:00;17.40;;;9.88;;
76194;SDS011;64964;48.694;21.206;2023-04-25T00:26:26;13.90;;;10.03;;
76194;SDS011;64964;48.694;21.206;2023-04-25T00:28:52;14.60;;;10.45;;
76194;SDS011;64964;48.694;21.206;2023-04-25T00:31:17;16.17;;;10.20;;
76194;SDS011;64964;48.694;21.206;2023-04-25T00:33:43;15.60;;;10.50;;
76194;SDS011;64964;48.694;21.206;2023-04-25T00:36:08;16.43;;;10.73;;
76194;SDS011;64964;48.694;21.206;2023-04-25T00:38:34;17.30;;;10.73;;
76194;SDS011;64964;48.694;21.206;2023-04-25T00:41:00;18.97;;;12.40;;
76194;SDS011;64964;48.694;21.206;2023-04-25T00:43:28;22.53;;;12.40;;
76194;SDS011;64964;48.694;21.206;2023-04-25T00:45:57;19.67;;;12.90;;
76194;SDS011;64964;48.694;21.206;2023-04-25T00:48:25;17.15;;;12.32;;
76194;SDS011;64964;48.694;21.206;2023-04-25T00:50:54;19.77;;;13.20;;
76194;SDS011;64964;48.694;21.206;2023-04-25T00:53:21;21.92;;;11.73;;
76194;SDS011;64964;48.694;21.206;2023-04-25T00:55:48;17.45;;;11.85;;
76194;SDS011;64964;48.694;21.206;2023-04-25T00:58:16;16.07;;;11.63;;
76194;SDS011;64964;48.694;21.206;2023-04-25T01:00:42;17.20;;;11.68;;
76194;SDS011;64964;48.694;21.206;2023-04-25T01:03:08;18.67;;;12.43;;
76194;SDS011;64964;48.694;21.206;2023-04-25T01:05:35;17.33;;;12.20;;
76194;SDS011;64964;48.694;21.206;2023-04-25T01:08:00;17.90;;;12.17;;
76194;SDS011;64964;48.694;21.206;2023-04-25T01:10:26;15.80;;;11.80;;
76194;SDS011;64964;48.694;21.206;2023-04-25T01:12:51;18.48;;;12.45;;
76194;SDS011;64964;48.694;21.206;2023-04-25T01:15:17;17.87;;;12.27;;
76194;SDS011;64964;48.694;21.206;2023-04-25T01:17:42;18.33;;;12.77;;
76194;SDS011;64964;48.694;21.206;2023-04-25T01:20:09;17.70;;;12.27;;
76194;SDS011;64964;48.694;21.206;2023-04-25T01:22:36;18.00;;;12.85;;
76194;SDS011;64964;48.694;21.206;2023-04-25T01:25:01;18.23;;;12.90;;
76194;SDS011;64964;48.694;21.206;2023-04-25T01:27:27;18.17;;;12.48;;
76194;SDS011;64964;48.694;21.206;2023-04-25T01:29:53;17.10;;;12.13;;
76194;SDS011;64964;48.694;21.206;2023-04-25T01:32:19;16.75;;;11.65;;
76194;SDS011;64964;48.694;21.206;2023-04-25T01:34:46;18.25;;;11.15;;
76194;SDS011;64964;48.694;21.206;2023-04-25T01:37:11;17.43;;;11.43;;
76194;SDS011;64964;48.694;21.206;2023-04-25T01:39:37;18.47;;;11.73;;
76194;SDS011;64964;48.694;21.206;2023-04-25T01:42:02;14.43;;;10.75;;
76194;SDS011;64964;48.694;21.206;2023-04-25T01:44:28;15.83;;;11.20;;
76194;SDS011;64964;48.694;21.206;2023-04-25T01:46:53;15.90;;;10.73;;
76194;SDS011;64964;48.694;21.206;2023-04-25T01:49:19;13.75;;;10.60;;
76194;SDS011;64964;48.694;21.206;2023-04-25T01:51:45;15.87;;;11.27;;
76194;SDS011;64964;48.694;21.206;2023-04-25T01:54:10;13.35;;;9.73;;
76194;SDS011;64964;48.694;21.206;2023-04-25T01:56:37;13.97;;;10.27;;
76194;SDS011;64964;48.694;21.206;2023-04-25T01:59:03;14.73;;;10.13;;
76194;SDS011;64964;48.694;21.206;2023-04-25T02:01:29;16.80;;;10.05;;
76194;SDS011;64964;48.694;21.206;2023-04-25T02:03:55;14.50;;;10.43;;
76194;SDS011;64964;48.694;21.206;2023-04-25T02:06:20;11.77;;;9.27;;
76194;SDS011;64964;48.694;21.206;2023-04-25T02:08:45;11.68;;;8.85;;
76194;SDS011;64964;48.694;21.206;2023-04-25T02:11:11;10.97;;;8.17;;
76194;SDS011;64964;48.694;21.206;2023-04-25T02:13:36;11.23;;;8.20;;
76194;SDS011;64964;48.694;21.206;2023-04-25T02:16:02;10.53;;;7.83;;
76194;SDS011;64964;48.694;21.206;2023-04-25T02:18:27;16.38;;;8.40;;
76194;SDS011;64964;48.694;21.206;2023-04-25T02:20:53;11.40;;;8.43;;
76194;SDS011;64964;48.694;21.206;2023-04-25T02:23:18;10.40;;;7.75;;
76194;SDS011;64964;48.694;21.206;2023-04-25T02:25:44;11.03;;;7.90;;
76194;SDS011;64964;48.694;21.206;2023-04-25T02:28:09;11.07;;;8.30;;
76194;SDS011;64964;48.694;21.206;2023-04-25T02:30:35;11.83;;;8.87;;
76194;SDS011;64964;48.694;21.206;2023-04-25T02:33:01;11.43;;;8.65;;
76194;SDS011;64964;48.694;21.206;2023-04-25T02:35:27;13.60;;;8.67;;
76194;SDS011;64964;48.694;21.206;2023-04-25T02:37:52;12.13;;;8.33;;
76194;SDS011;64964;48.694;21.206;2023-04-25T02:40:17;11.13;;;8.38;;
76194;SDS011;64964;48.694;21.206;2023-04-25T02:42:43;13.27;;;9.00;;
76194;SDS011;64964;48.694;21.206;2023-04-25T02:45:10;12.52;;;8.38;;
76194;SDS011;64964;48.694;21.206;2023-04-25T02:47:36;11.70;;;8.53;;
76194;SDS011;64964;48.694;21.206;2023-04-25T02:50:02;11.52;;;8.60;;
76194;SDS011;64964;48.694;21.206;2023-04-25T02:52:28;11.45;;;8.60;;
76194;SDS011;64964;48.694;21.206;2023-04-25T02:54:53;13.43;;;9.23;;
76194;SDS011;64964;48.694;21.206;2023-04-25T02:57:19;13.23;;;9.00;;
76194;SDS011;64964;48.694;21.206;2023-04-25T02:59:44;13.50;;;9.60;;
76194;SDS011;64964;48.694;21.206;2023-04-25T03:02:09;12.47;;;9.10;;
76194;SDS011;64964;48.694;21.206;2023-04-25T03:04:35;13.75;;;9.55;;
76194;SDS011;64964;48.694;21.206;2023-04-25T03:07:00;12.90;;;9.43;;
76194;SDS011;64964;48.694;21.206;2023-04-25T03:09:26;12.13;;;9.30;;
76194;SDS011;64964;48.694;21.206;2023-04-25T03:11:52;14.57;;;9.93;;
76194;SDS011;64964;48.694;21.206;2023-04-25T03:14:17;11.87;;;8.67;;
76194;SDS011;64964;48.694;21.206;2023-04-25T03:16:42;12.97;;;9.90;;
76194;SDS011;64964;48.694;21.206;2023-04-25T03:19:08;13.25;;;9.40;;
76194;SDS011;64964;48.694;21.206;2023-04-25T03:21:33;13.97;;;9.20;;
76194;SDS011;64964;48.694;21.206;2023-04-25T03:24:00;14.75;;;9.48;;
76194;SDS011;64964;48.694;21.206;2023-04-25T03:26:27;13.37;;;9.50;;
76194;SDS011;64964;48.694;21.206;2023-04-25T03:28:53;13.95;;;9.15;;
76194;SDS011;64964;48.694;21.206;2023-04-25T03:31:18;14.00;;;9.50;;
76194;SDS011;64964;48.694;21.206;2023-04-25T03:33:44;14.52;;;9.18;;
76194;SDS011;64964;48.694;21.206;2023-04-25T03:36:10;12.87;;;9.90;;
76194;SDS011;64964;48.694;21.206;2023-04-25T03:38:35;13.83;;;9.30;;
76194;SDS011;64964;48.694;21.206;2023-04-25T03:41:01;13.93;;;8.87;;
76194;SDS011;64964;48.694;21.206;2023-04-25T03:43:26;11.88;;;8.13;;
76194;SDS011;64964;48.694;21.206;2023-04-25T03:45:52;14.73;;;9.03;;
76194;SDS011;64964;48.694;21.206;2023-04-25T03:48:17;12.50;;;9.15;;
76194;SDS011;64964;48.694;21.206;2023-04-25T03:50:42;13.70;;;9.63;;
76194;SDS011;64964;48.694;21.206;2023-04-25T03:53:08;13.57;;;8.73;;
76194;SDS011;64964;48.694;21.206;2023-04-25T03:55:33;14.23;;;9.27;;
76194;SDS011;64964;48.694;21.206;2023-04-25T03:57:58;12.60;;;8.80;;
76194;SDS011;64964;48.694;21.206;2023-04-25T04:00:24;12.60;;;8.65;;
76194;SDS011;64964;48.694;21.206;2023-04-25T04:02:50;12.27;;;8.50;;
76194;SDS011;64964;48.694;21.206;2023-04-25T04:05:15;13.70;;;9.65;;
76194;SDS011;64964;48.694;21.206;2023-04-25T04:07:41;14.30;;;10.00;;
76194;SDS011;64964;48.694;21.206;2023-04-25T04:10:07;14.00;;;10.23;;
76194;SDS011;64964;48.694;21.206;2023-04-25T04:12:34;14.00;;;9.50;;
76194;SDS011;64964;48.694;21.206;2023-04-25T04:14:59;12.10;;;8.45;;
76194;SDS011;64964;48.694;21.206;2023-04-25T04:17:24;11.60;;;8.30;;
76194;SDS011;64964;48.694;21.206;2023-04-25T04:19:50;10.53;;;7.87;;
76194;SDS011;64964;48.694;21.206;2023-04-25T04:22:15;10.13;;;7.60;;
76194;SDS011;64964;48.694;21.206;2023-04-25T04:24:41;11.07;;;7.77;;
76194;SDS011;64964;48.694;21.206;2023-04-25T04:27:08;10.73;;;7.90;;
76194;SDS011;64964;48.694;21.206;2023-04-25T04:29:34;10.07;;;7.83;;
76194;SDS011;64964;48.694;21.206;2023-04-25T04:32:01;11.00;;;7.70;;
76194;SDS011;64964;48.694;21.206;2023-04-25T04:34:28;10.23;;;7.13;;
76194;SDS011;64964;48.694;21.206;2023-04-25T04:36:54;8.38;;;6.63;;
76194;SDS011;64964;48.694;21.206;2023-04-25T04:39:20;10.00;;;7.50;;
76194;SDS011;64964;48.694;21.206;2023-04-25T04:41:45;6.72;;;5.20;;
76194;SDS011;64964;48.694;21.206;2023-04-25T04:44:11;9.53;;;6.00;;
76194;SDS011;64964;48.694;21.206;2023-04-25T04:46:37;8.50;;;5.80;;
76194;SDS011;64964;48.694;21.206;2023-04-25T04:49:05;9.60;;;7.03;;
76194;SDS011;64964;48.694;21.206;2023-04-25T04:51:31;8.37;;;5.83;;
76194;SDS011;64964;48.694;21.206;2023-04-25T04:53:56;9.20;;;6.55;;
76194;SDS011;64964;48.694;21.206;2023-04-25T04:56:23;9.65;;;6.57;;
76194;SDS011;64964;48.694;21.206;2023-04-25T04:58:50;9.67;;;6.70;;
76194;SDS011;64964;48.694;21.206;2023-04-25T05:01:15;10.07;;;6.47;;
76194;SDS011;64964;48.694;21.206;2023-04-25T05:03:41;8.37;;;5.97;;
76194;SDS011;64964;48.694;21.206;2023-04-25T05:06:06;8.30;;;5.80;;
76194;SDS011;64964;48.694;21.206;2023-04-25T05:08:31;7.00;;;5.27;;
76194;SDS011;64964;48.694;21.206;2023-04-25T05:10:57;9.13;;;5.70;;
76194;SDS011;64964;48.694;21.206;2023-04-25T05:13:22;8.57;;;5.87;;
76194;SDS011;64964;48.694;21.206;2023-04-25T05:15:48;8.20;;;5.63;;
76194;SDS011;64964;48.694;21.206;2023-04-25T05:18:13;7.77;;;5.70;;
76194;SDS011;64964;48.694;21.206;2023-04-25T05:20:38;7.73;;;5.57;;
76194;SDS011;64964;48.694;21.206;2023-04-25T05:23:04;7.10;;;5.70;;
76194;SDS011;64964;48.694;21.206;2023-04-25T05:25:29;6.87;;;5.37;;
76194;SDS011;64964;48.694;21.206;2023-04-25T05:27:55;6.85;;;5.20;;
76194;SDS011;64964;48.694;21.206;2023-04-25T05:30:21;7.73;;;5.37;;
76194;SDS011;64964;48.694;21.206;2023-04-25T05:32:47;7.13;;;5.28;;
76194;SDS011;64964;48.694;21.206;2023-04-25T05:35:12;7.70;;;5.10;;
76194;SDS011;64964;48.694;21.206;2023-04-25T05:37:37;8.13;;;5.27;;
76194;SDS011;64964;48.694;21.206;2023-04-25T05:40:03;6.97;;;5.23;;
76194;SDS011;64964;48.694;21.206;2023-04-25T05:42:31;7.65;;;5.28;;
76194;SDS011;64964;48.694;21.206;2023-04-25T05:44:57;6.35;;;4.65;;
76194;SDS011;64964;48.694;21.206;2023-04-25T05:47:23;7.13;;;5.03;;
76194;SDS011;64964;48.694;21.206;2023-04-25T05:49:48;6.83;;;4.93;;
76194;SDS011;64964;48.694;21.206;2023-04-25T05:52:13;6.23;;;3.97;;
76194;SDS011;64964;48.694;21.206;2023-04-25T05:54:40;6.70;;;3.90;;
76194;SDS011;64964;48.694;21.206;2023-04-25T05:57:05;4.00;;;3.30;;
76194;SDS011;64964;48.694;21.206;2023-04-25T05:59:31;3.88;;;2.70;;
76194;SDS011;64964;48.694;21.206;2023-04-25T06:01:56;3.77;;;2.93;;
76194;SDS011;64964;48.694;21.206;2023-04-25T06:04:22;4.27;;;3.00;;
76194;SDS011;64964;48.694;21.206;2023-04-25T06:06:47;3.73;;;2.47;;
76194;SDS011;64964;48.694;21.206;2023-04-25T06:09:12;4.23;;;3.20;;
76194;SDS011;64964;48.694;21.206;2023-04-25T06:11:38;3.77;;;3.13;;
76194;SDS011;64964;48.694;21.206;2023-04-25T06:14:03;6.40;;;3.67;;
76194;SDS011;64964;48.694;21.206;2023-04-25T06:16:28;4.03;;;2.43;;
76194;SDS011;64964;48.694;21.206;2023-04-25T06:18:54;3.37;;;2.03;;
76194;SDS011;64964;48.694;21.206;2023-04-25T06:21:19;3.80;;;2.20;;
76194;SDS011;64964;48.694;21.206;2023-04-25T06:23:45;4.37;;;1.90;;
76194;SDS011;64964;48.694;21.206;2023-04-25T06:26:10;2.53;;;1.70;;
76194;SDS011;64964;48.694;21.206;2023-04-25T06:28:35;2.70;;;1.70;;
76194;SDS011;64964;48.694;21.206;2023-04-25T06:31:01;1.60;;;1.50;;
76194;SDS011;64964;48.694;21.206;2023-04-25T06:33:26;4.10;;;1.50;;
76194;SDS011;64964;48.694;21.206;2023-04-25T06:35:51;1.70;;;1.60;;
76194;SDS011;64964;48.694;21.206;2023-04-25T06:38:17;3.05;;;1.40;;
76194;SDS011;64964;48.694;21.206;2023-04-25T06:40:43;2.80;;;1.50;;
76194;SDS011;64964;48.694;21.206;2023-04-25T06:43:08;2.10;;;1.20;;
76194;SDS011;64964;48.694;21.206;2023-04-25T06:45:33;1.33;;;1.17;;
76194;SDS011;64964;48.694;21.206;2023-04-25T06:47:59;1.73;;;1.27;;
76194;SDS011;64964;48.694;21.206;2023-04-25T06:50:24;1.83;;;1.00;;
76194;SDS011;64964;48.694;21.206;2023-04-25T06:52:50;1.33;;;1.10;;
76194;SDS011;64964;48.694;21.206;2023-04-25T06:55:15;1.67;;;0.90;;
76194;SDS011;64964;48.694;21.206;2023-04-25T06:57:40;1.90;;;1.10;;
76194;SDS011;64964;48.694;21.206;2023-04-25T07:00:06;1.37;;;1.00;;
76194;SDS011;64964;48.694;21.206;2023-04-25T07:02:34;1.67;;;1.10;;
76194;SDS011;64964;48.694;21.206;2023-04-25T07:04:59;2.35;;;1.17;;
76194;SDS011;64964;48.694;21.206;2023-04-25T07:07:25;3.03;;;1.00;;
76194;SDS011;64964;48.694;21.206;2023-04-25T07:09:51;2.08;;;1.10;;
76194;SDS011;64964;48.694;21.206;2023-04-25T07:12:16;1.83;;;1.10;;
76194;SDS011;64964;48.694;21.206;2023-04-25T07:14:42;1.50;;;1.10;;
76194;SDS011;64964;48.694;21.206;2023-04-25T07:17:07;1.73;;;1.20;;
76194;SDS011;64964;48.694;21.206;2023-04-25T07:19:33;1.10;;;1.00;;
76194;SDS011;64964;48.694;21.206;2023-04-25T07:21:58;2.75;;;0.90;;
76194;SDS011;64964;48.694;21.206;2023-04-25T07:24:23;2.17;;;1.00;;
76194;SDS011;64964;48.694;21.206;2023-04-25T07:26:49;0.90;;;0.90;;
76194;SDS011;64964;48.694;21.206;2023-04-25T07:29:14;1.38;;;1.20;;
76194;SDS011;64964;48.694;21.206;2023-04-25T07:31:40;1.50;;;1.13;;
76194;SDS011;64964;48.694;21.206;2023-04-25T07:34:05;2.40;;;1.20;;
76194;SDS011;64964;48.694;21.206;2023-04-25T07:36:31;1.20;;;1.10;;
76194;SDS011;64964;48.694;21.206;2023-04-25T07:38:56;2.57;;;1.30;;
76194;SDS011;64964;48.694;21.206;2023-04-25T07:41:21;2.43;;;1.10;;
76194;SDS011;64964;48.694;21.206;2023-04-25T07:43:47;3.13;;;1.23;;
76194;SDS011;64964;48.694;21.206;2023-04-25T07:46:12;1.95;;;1.20;;
76194;SDS011;64964;48.694;21.206;2023-04-25T07:48:38;2.43;;;1.20;;
76194;SDS011;64964;48.694;21.206;2023-04-25T07:51:03;4.70;;;1.27;;
76194;SDS011;64964;48.694;21.206;2023-04-25T07:53:30;1.23;;;1.10;;
76194;SDS011;64964;48.694;21.206;2023-04-25T07:55:56;2.92;;;1.20;;
76194;SDS011;64964;48.694;21.206;2023-04-25T07:58:22;4.20;;;1.33;;
76194;SDS011;64964;48.694;21.206;2023-04-25T08:00:48;1.77;;;1.20;;
76194;SDS011;64964;48.694;21.206;2023-04-25T08:03:13;1.20;;;1.10;;
76194;SDS011;64964;48.694;21.206;2023-04-25T08:05:38;1.77;;;1.30;;
76194;SDS011;64964;48.694;21.206;2023-04-25T08:08:04;1.85;;;1.20;;
76194;SDS011;64964;48.694;21.206;2023-04-25T08:10:31;3.45;;;1.10;;
76194;SDS011;64964;48.694;21.206;2023-04-25T08:12:58;1.27;;;1.10;;
76194;SDS011;64964;48.694;21.206;2023-04-25T08:15:24;1.10;;;0.82;;
76194;SDS011;64964;48.694;21.206;2023-04-25T08:17:50;1.30;;;1.10;;
76194;SDS011;64964;48.694;21.206;2023-04-25T08:20:16;1.50;;;0.90;;
76194;SDS011;64964;48.694;21.206;2023-04-25T08:22:41;1.00;;;0.90;;
76194;SDS011;64964;48.694;21.206;2023-04-25T08:25:07;0.80;;;0.80;;
76194;SDS011;64964;48.694;21.206;2023-04-25T08:27:33;0.80;;;0.80;;
76194;SDS011;64964;48.694;21.206;2023-04-25T08:29:58;0.80;;;0.80;;
76194;SDS011;64964;48.694;21.206;2023-04-25T08:32:23;1.07;;;0.97;;
76194;SDS011;64964;48.694;21.206;2023-04-25T08:34:49;0.88;;;0.80;;
76194;SDS011;64964;48.694;21.206;2023-04-25T08:37:16;1.53;;;0.70;;
76194;SDS011;64964;48.694;21.206;2023-04-25T08:39:41;0.80;;;0.73;;
76194;SDS011;64964;48.694;21.206;2023-04-25T08:42:07;0.70;;;0.70;;
76194;SDS011;64964;48.694;21.206;2023-04-25T08:44:33;0.90;;;0.80;;
76194;SDS011;64964;48.694;21.206;2023-04-25T08:47:01;1.27;;;0.80;;
76194;SDS011;64964;48.694;21.206;2023-04-25T08:49:28;0.88;;;0.80;;
76194;SDS011;64964;48.694;21.206;2023-04-25T08:51:54;1.10;;;1.00;;
76194;SDS011;64964;48.694;21.206;2023-04-25T08:54:24;0.90;;;0.90;;
76194;SDS011;64964;48.694;21.206;2023-04-25T08:56:53;1.95;;;1.08;;
76194;SDS011;64964;48.694;21.206;2023-04-25T08:59:19;1.00;;;0.87;;
76194;SDS011;64964;48.694;21.206;2023-04-25T09:01:48;0.80;;;0.80;;
76194;SDS011;64964;48.694;21.206;2023-04-25T09:04:14;0.90;;;0.90;;
76194;SDS011;64964;48.694;21.206;2023-04-25T09:06:40;1.30;;;1.00;;
76194;SDS011;64964;48.694;21.206;2023-04-25T09:09:05;1.20;;;0.93;;
76194;SDS011;64964;48.694;21.206;2023-04-25T09:11:32;0.80;;;0.80;;
76194;SDS011;64964;48.694;21.206;2023-04-25T09:14:19;2.05;;;1.20;;
76194;SDS011;64964;48.694;21.206;2023-04-25T09:21:49;1.33;;;0.97;;
76194;SDS011;64964;48.694;21.206;2023-04-25T09:24:15;0.70;;;0.70;;
76194;SDS011;64964;48.694;21.206;2023-04-25T09:26:40;1.00;;;1.00;;
76194;SDS011;64964;48.694;21.206;2023-04-25T09:29:06;1.00;;;0.90;;
76194;SDS011;64964;48.694;21.206;2023-04-25T09:31:32;1.95;;;1.05;;
76194;SDS011;64964;48.694;21.206;2023-04-25T09:34:01;1.67;;;1.10;;
76194;SDS011;64964;48.694;21.206;2023-04-25T09:36:27;1.63;;;1.00;;
76194;SDS011;64964;48.694;21.206;2023-04-25T09:38:53;2.03;;;0.80;;
76194;SDS011;64964;48.694;21.206;2023-04-25T09:41:22;1.43;;;0.90;;
76194;SDS011;64964;48.694;21.206;2023-04-25T09:43:49;1.17;;;1.08;;
76194;SDS011;64964;48.694;21.206;2023-04-25T09:46:15;2.00;;;1.08;;
76194;SDS011;64964;48.694;21.206;2023-04-25T09:48:46;0.90;;;0.90;;
76194;SDS011;64964;48.694;21.206;2023-04-25T09:51:13;0.90;;;0.90;;
76194;SDS011;64964;48.694;21.206;2023-04-25T09:53:42;1.10;;;0.90;;
76194;SDS011;64964;48.694;21.206;2023-04-25T09:56:11;1.02;;;0.90;;
76194;SDS011;64964;48.694;21.206;2023-04-25T09:58:37;1.23;;;1.15;;
76194;SDS011;64964;48.694;21.206;2023-04-25T10:01:05;1.63;;;1.00;;
76194;SDS011;64964;48.694;21.206;2023-04-25T10:03:33;1.58;;;0.90;;
76194;SDS011;64964;48.694;21.206;2023-04-25T10:06:00;1.23;;;1.13;;
76194;SDS011;64964;48.694;21.206;2023-04-25T10:08:34;1.33;;;1.10;;
76194;SDS011;64964;48.694;21.206;2023-04-25T10:11:02;0.95;;;0.93;;
76194;SDS011;64964;48.694;21.206;2023-04-25T10:13:32;1.20;;;1.10;;
76194;SDS011;64964;48.694;21.206;2023-04-25T10:15:58;1.15;;;0.90;;
76194;SDS011;64964;48.694;21.206;2023-04-25T10:18:26;1.42;;;1.20;;
76194;SDS011;64964;48.694;21.206;2023-04-25T10:20:53;3.35;;;1.10;;
76194;SDS011;64964;48.694;21.206;2023-04-25T10:23:23;2.05;;;1.15;;
76194;SDS011;64964;48.694;21.206;2023-04-25T10:25:52;1.20;;;1.10;;
76194;SDS011;64964;48.694;21.206;2023-04-25T10:28:19;1.48;;;1.02;;
76194;SDS011;64964;48.694;21.206;2023-04-25T10:30:58;1.50;;;1.10;;
76194;SDS011;64964;48.694;21.206;2023-04-25T10:33:37;2.15;;;1.20;;
76194;SDS011;64964;48.694;21.206;2023-04-25T10:36:13;1.20;;;1.10;;
76194;SDS011;64964;48.694;21.206;2023-04-25T10:38:40;1.53;;;1.20;;
76194;SDS011;64964;48.694;21.206;2023-04-25T10:41:08;0.90;;;0.90;;
76194;SDS011;64964;48.694;21.206;2023-04-25T10:43:44;1.20;;;1.10;;
76194;SDS011;64964;48.694;21.206;2023-04-25T10:48:53;2.15;;;1.42;;
76194;SDS011;64964;48.694;21.206;2023-04-25T10:51:26;2.13;;;1.50;;
76194;SDS011;64964;48.694;21.206;2023-04-25T10:54:03;2.78;;;1.30;;
76194;SDS011;64964;48.694;21.206;2023-04-25T10:56:37;2.17;;;1.20;;
76194;SDS011;64964;48.694;21.206;2023-04-25T11:04:03;1.83;;;1.20;;
76194;SDS011;64964;48.694;21.206;2023-04-25T11:06:29;1.33;;;1.23;;
76194;SDS011;64964;48.694;21.206;2023-04-25T11:09:02;1.30;;;1.20;;
76194;SDS011;64964;48.694;21.206;2023-04-25T11:11:33;1.30;;;1.10;;
76194;SDS011;64964;48.694;21.206;2023-04-25T11:14:01;1.30;;;1.20;;
76194;SDS011;64964;48.694;21.206;2023-04-25T11:16:27;1.60;;;1.23;;
76194;SDS011;64964;48.694;21.206;2023-04-25T11:18:52;1.20;;;1.10;;
76194;SDS011;64964;48.694;21.206;2023-04-25T11:21:17;1.30;;;1.20;;
76194;SDS011;64964;48.694;21.206;2023-04-25T11:23:46;1.53;;;1.10;;
76194;SDS011;64964;48.694;21.206;2023-04-25T11:26:12;2.10;;;1.38;;
76194;SDS011;64964;48.694;21.206;2023-04-25T11:28:39;2.40;;;1.10;;
76194;SDS011;64964;48.694;21.206;2023-04-25T11:31:04;1.60;;;1.50;;
76194;SDS011;64964;48.694;21.206;2023-04-25T11:33:30;1.17;;;1.10;;
76194;SDS011;64964;48.694;21.206;2023-04-25T11:35:55;2.10;;;1.30;;
76194;SDS011;64964;48.694;21.206;2023-04-25T11:38:24;2.00;;;1.30;;
76194;SDS011;64964;48.694;21.206;2023-04-25T11:40:54;1.23;;;1.13;;
76194;SDS011;64964;48.694;21.206;2023-04-25T11:43:20;1.38;;;1.05;;
76194;SDS011;64964;48.694;21.206;2023-04-25T11:45:47;1.30;;;1.20;;
76194;SDS011;64964;48.694;21.206;2023-04-25T11:48:13;1.45;;;1.20;;
76194;SDS011;64964;48.694;21.206;2023-04-25T11:50:39;1.30;;;1.20;;
76194;SDS011;64964;48.694;21.206;2023-04-25T11:53:05;1.30;;;1.20;;
76194;SDS011;64964;48.694;21.206;2023-04-25T11:55:31;1.40;;;1.30;;
76194;SDS011;64964;48.694;21.206;2023-04-25T11:57:58;1.88;;;1.30;;
76194;SDS011;64964;48.694;21.206;2023-04-25T12:00:25;1.57;;;1.30;;
76194;SDS011;64964;48.694;21.206;2023-04-25T12:02:52;1.52;;;1.42;;
76194;SDS011;64964;48.694;21.206;2023-04-25T12:05:19;2.35;;;1.30;;
76194;SDS011;64964;48.694;21.206;2023-04-25T12:07:45;1.38;;;1.23;;
76194;SDS011;64964;48.694;21.206;2023-04-25T12:10:12;1.88;;;1.50;;
76194;SDS011;64964;48.694;21.206;2023-04-25T12:12:42;1.63;;;1.53;;
76194;SDS011;64964;48.694;21.206;2023-04-25T12:15:15;1.40;;;1.30;;
76194;SDS011;64964;48.694;21.206;2023-04-25T12:17:48;1.42;;;1.33;;
76194;SDS011;64964;48.694;21.206;2023-04-25T12:20:15;1.90;;;1.48;;
76194;SDS011;64964;48.694;21.206;2023-04-25T12:22:43;2.85;;;1.60;;
76194;SDS011;64964;48.694;21.206;2023-04-25T12:25:10;2.03;;;1.50;;
76194;SDS011;64964;48.694;21.206;2023-04-25T12:27:37;1.33;;;1.23;;
76194;SDS011;64964;48.694;21.206;2023-04-25T12:30:07;2.15;;;1.60;;
76194;SDS011;64964;48.694;21.206;2023-04-25T12:32:33;1.70;;;1.40;;
76194;SDS011;64964;48.694;21.206;2023-04-25T12:34:58;1.60;;;1.50;;
76194;SDS011;64964;48.694;21.206;2023-04-25T12:37:23;1.70;;;1.50;;
76194;SDS011;64964;48.694;21.206;2023-04-25T12:39:49;2.60;;;1.80;;
76194;SDS011;64964;48.694;21.206;2023-04-25T12:42:14;2.42;;;1.60;;
76194;SDS011;64964;48.694;21.206;2023-04-25T12:44:40;2.10;;;1.90;;
76194;SDS011;64964;48.694;21.206;2023-04-25T12:47:06;2.00;;;1.80;;
76194;SDS011;64964;48.694;21.206;2023-04-25T12:49:31;1.80;;;1.70;;
76194;SDS011;64964;48.694;21.206;2023-04-25T12:51:57;2.08;;;1.80;;
76194;SDS011;64964;48.694;21.206;2023-04-25T12:54:23;1.70;;;1.60;;
76194;SDS011;64964;48.694;21.206;2023-04-25T12:56:48;2.47;;;1.60;;
76194;SDS011;64964;48.694;21.206;2023-04-25T12:59:15;1.90;;;1.80;;
76194;SDS011;64964;48.694;21.206;2023-04-25T13:01:40;1.77;;;1.67;;
76194;SDS011;64964;48.694;21.206;2023-04-25T13:04:06;2.10;;;1.90;;
76194;SDS011;64964;48.694;21.206;2023-04-25T13:06:31;2.47;;;2.03;;
76194;SDS011;64964;48.694;21.206;2023-04-25T13:08:56;2.03;;;1.70;;
76194;SDS011;64964;48.694;21.206;2023-04-25T13:11:22;2.33;;;1.93;;
76194;SDS011;64964;48.694;21.206;2023-04-25T13:13:47;2.00;;;1.73;;
76194;SDS011;64964;48.694;21.206;2023-04-25T13:16:13;2.10;;;1.90;;
76194;SDS011;64964;48.694;21.206;2023-04-25T13:18:41;4.18;;;2.00;;
76194;SDS011;64964;48.694;21.206;2023-04-25T13:21:07;2.80;;;1.90;;
76194;SDS011;64964;48.694;21.206;2023-04-25T13:23:34;2.00;;;1.90;;
76194;SDS011;64964;48.694;21.206;2023-04-25T13:25:59;2.40;;;2.10;;
76194;SDS011;64964;48.694;21.206;2023-04-25T13:28:26;2.20;;;2.00;;
76194;SDS011;64964;48.694;21.206;2023-04-25T13:30:52;3.35;;;2.08;;
76194;SDS011;64964;48.694;21.206;2023-04-25T13:33:18;3.97;;;1.90;;
76194;SDS011;64964;48.694;21.206;2023-04-25T13:35:45;2.00;;;1.83;;
76194;SDS011;64964;48.694;21.206;2023-04-25T13:38:12;2.97;;;1.95;;
76194;SDS011;64964;48.694;21.206;2023-04-25T13:40:38;2.20;;;2.00;;
76194;SDS011;64964;48.694;21.206;2023-04-25T13:43:04;2.43;;;2.13;;
76194;SDS011;64964;48.694;21.206;2023-04-25T13:45:31;2.10;;;1.88;;
76194;SDS011;64964;48.694;21.206;2023-04-25T13:47:56;1.87;;;1.77;;
76194;SDS011;64964;48.694;21.206;2023-04-25T13:50:22;2.03;;;1.80;;
76194;SDS011;64964;48.694;21.206;2023-04-25T13:52:47;4.15;;;2.00;;
76194;SDS011;64964;48.694;21.206;2023-04-25T13:55:12;1.93;;;1.73;;
76194;SDS011;64964;48.694;21.206;2023-04-25T13:57:38;2.30;;;2.00;;
76194;SDS011;64964;48.694;21.206;2023-04-25T14:00:04;1.90;;;1.60;;
76194;SDS011;64964;48.694;21.206;2023-04-25T14:02:36;1.85;;;1.75;;
76194;SDS011;64964;48.694;21.206;2023-04-25T14:05:03;2.17;;;1.80;;
76194;SDS011;64964;48.694;21.206;2023-04-25T14:07:29;3.15;;;1.90;;
76194;SDS011;64964;48.694;21.206;2023-04-25T14:09:55;3.23;;;1.97;;
76194;SDS011;64964;48.694;21.206;2023-04-25T14:12:22;1.95;;;1.75;;
76194;SDS011;64964;48.694;21.206;2023-04-25T14:14:48;2.15;;;1.75;;
76194;SDS011;64964;48.694;21.206;2023-04-25T14:17:13;1.70;;;1.60;;
76194;SDS011;64964;48.694;21.206;2023-04-25T14:19:38;2.10;;;1.90;;
76194;SDS011;64964;48.694;21.206;2023-04-25T14:22:08;1.70;;;1.60;;
76194;SDS011;64964;48.694;21.206;2023-04-25T14:24:33;1.60;;;1.50;;
76194;SDS011;64964;48.694;21.206;2023-04-25T14:26:59;1.50;;;1.40;;
76194;SDS011;64964;48.694;21.206;2023-04-25T14:29:25;2.60;;;1.90;;
76194;SDS011;64964;48.694;21.206;2023-04-25T14:31:51;2.07;;;1.87;;
76194;SDS011;64964;48.694;21.206;2023-04-25T14:34:16;2.73;;;1.60;;
76194;SDS011;64964;48.694;21.206;2023-04-25T14:36:41;2.13;;;1.67;;